Terminal Aerodrome Forecast
Issued by NWS Sterling, VA

Home | Current Version | Previous Version | Text Only | Print | Product List | Glossary On
Versions: 1 2 3 4 5 6 7 8 9 10 11 12 13 14 15 16 17 18 19 20 21 22 23 24
000
FTUS41 KLWX 290200 AAA
TAFBWI
TAF AMD
KBWI 290232Z 2903/3006 VRB04KT P6SM FEW050 SCT120
     FM291400 15007KT P6SM SCT060 BKN150
     FM291800 17011G18KT P6SM BKN100
     FM292200 19007KT P6SM SCT060 BKN120=

USA.gov is the U.S. government's official web portal to all federal, state and local government web resources and services.